createdAt,value
2019-04-11T00:00:37.970Z,38.02
2019-04-11T00:03:06.435Z,40.25
2019-04-11T00:05:35.104Z,39.63
2019-04-11T00:08:03.851Z,39.50
2019-04-11T00:10:33.303Z,37.50
2019-04-11T00:13:14.283Z,38.98
2019-04-11T00:15:32.816Z,38.98
2019-04-11T00:18:02.720Z,36.68
2019-04-11T00:20:31.886Z,36.83
2019-04-11T00:23:01.711Z,39.58
2019-04-11T00:25:31.603Z,36.33
2019-04-11T00:28:01.449Z,35.55
2019-04-11T00:30:30.336Z,37.20
2019-04-11T00:33:00.091Z,34.95
2019-04-11T00:35:28.703Z,35.33
2019-04-11T00:37:57.200Z,37.90
2019-04-11T00:40:26.877Z,39.18
2019-04-11T00:42:55.874Z,36.73
2019-04-11T00:45:24.466Z,38.65
2019-04-11T00:47:53.266Z,37.90
2019-04-11T00:50:21.764Z,36.58
2019-04-11T00:52:50.213Z,35.78
2019-04-11T00:55:19.622Z,34.25
2019-04-11T00:57:48.188Z,37.23
2019-04-11T01:00:17.053Z,33.60
2019-04-11T01:02:45.568Z,34.83
2019-04-11T01:05:15.072Z,36.03
2019-04-11T01:07:43.935Z,34.92
2019-04-11T01:10:12.477Z,32.38
2019-04-11T01:12:41.012Z,34.83
2019-04-11T01:15:13.352Z,34.83
2019-04-11T01:17:42.384Z,35.83
2019-04-11T01:20:11.296Z,38.28
2019-04-11T01:22:40.547Z,34.90
2019-04-11T01:25:10.366Z,35.50
2019-04-11T01:27:39.973Z,36.55
2019-04-11T01:30:11.950Z,33.63
2019-04-11T01:32:40.569Z,32.70
2019-04-11T01:35:09.107Z,34.35
2019-04-11T01:37:39.745Z,32.95
2019-04-11T01:40:09.716Z,32.58
2019-04-11T01:42:39.700Z,34.25
2019-04-11T01:45:09.576Z,33.30
2019-04-11T01:47:39.762Z,35.78
2019-04-11T01:50:08.649Z,30.50
2019-04-11T01:52:38.287Z,32.13
2019-04-11T01:55:08.248Z,30.12
2019-04-11T01:57:38.124Z,29.95
2019-04-11T02:00:08.230Z,30.68
2019-04-11T02:02:46.506Z,31.30
2019-04-11T02:05:29.350Z,30.17
2019-04-11T02:07:58.722Z,27.77
2019-04-11T02:10:28.712Z,27.77
2019-04-11T02:12:57.684Z,30.90
2019-04-11T02:15:28.733Z,30.27
2019-04-11T02:17:57.290Z,32.35
2019-04-11T02:20:27.147Z,30.23
2019-04-11T02:22:57.466Z,30.90
2019-04-11T02:25:30.560Z,30.30
2019-04-11T02:28:01.190Z,28.17
2019-04-11T02:30:30.873Z,33.70
2019-04-11T02:33:00.350Z,31.27
2019-04-11T02:35:30.903Z,29.77
2019-04-11T02:37:59.861Z,29.10
2019-04-11T02:40:30.004Z,29.65
2019-04-11T02:43:00.911Z,29.15
2019-04-11T02:45:43.282Z,31.02
2019-04-11T02:48:01.584Z,28.87
2019-04-11T02:50:32.027Z,29.27
2019-04-11T02:53:02.453Z,27.93
2019-04-11T02:55:31.719Z,26.52
2019-04-11T02:58:01.824Z,31.55
2019-04-11T03:00:32.726Z,30.27
2019-04-11T03:03:03.409Z,28.73
2019-04-11T03:05:34.483Z,27.93
2019-04-11T03:08:06.806Z,29.87
2019-04-11T03:10:33.618Z,24.67
2019-04-11T03:13:02.999Z,30.92
2019-04-11T03:15:43.055Z,24.63
2019-04-11T03:18:06.624Z,24.85
2019-04-11T03:20:40.734Z,26.50
2019-04-11T03:23:07.604Z,26.62
2019-04-11T03:25:36.360Z,25.65
2019-04-11T03:28:09.611Z,27.48
2019-04-11T03:30:54.025Z,27.80
2019-04-11T03:36:36.974Z,24.57
2019-04-11T03:38:31.369Z,31.10
2019-04-11T03:40:57.922Z,27.32
2019-04-11T03:43:21.143Z,27.67
2019-04-11T03:46:01.889Z,23.40
2019-04-11T03:48:27.302Z,28.85
2019-04-11T03:50:42.475Z,24.55
2019-04-11T03:53:11.709Z,23.42
2019-04-11T03:55:41.246Z,25.17
2019-04-11T03:58:09.830Z,25.60
2019-04-11T04:00:43.843Z,24.30
2019-04-11T04:03:11.397Z,22.70
2019-04-11T04:05:41.985Z,25.05
2019-04-11T04:08:13.004Z,26.40
2019-04-11T04:10:43.701Z,24.65
2019-04-11T04:13:16.966Z,28.35
2019-04-11T04:16:02.720Z,26.35
2019-04-11T04:18:29.732Z,24.55
2019-04-11T04:23:31.461Z,23.42
2019-04-11T04:26:03.214Z,24.45
2019-04-11T04:28:33.698Z,24.15
2019-04-11T04:31:04.432Z,28.57
2019-04-11T04:33:35.426Z,24.00
2019-04-11T04:36:06.487Z,25.62
2019-04-11T04:38:35.452Z,26.42
2019-04-11T04:41:17.564Z,21.45
2019-04-11T04:43:38.779Z,24.25
2019-04-11T04:46:25.063Z,27.05
2019-04-11T04:48:38.085Z,23.85
2019-04-11T04:51:10.852Z,23.77
2019-04-11T04:53:39.032Z,29.92
2019-04-11T04:56:09.033Z,29.87
2019-04-11T04:58:38.007Z,24.30
2019-04-11T05:01:07.111Z,25.52
2019-04-11T05:03:35.959Z,28.90
2019-04-11T05:06:04.580Z,27.65
2019-04-11T05:08:34.592Z,28.67
2019-04-11T05:11:04.517Z,26.48
2019-04-11T05:13:34.456Z,26.80
2019-04-11T05:16:13.081Z,26.85
2019-04-11T05:18:34.278Z,26.55
2019-04-11T05:21:03.371Z,28.38
2019-04-11T05:23:32.115Z,26.07
2019-04-11T05:26:01.652Z,27.77
2019-04-11T05:28:30.258Z,25.90
2019-04-11T05:30:58.992Z,26.48
2019-04-11T05:33:27.697Z,27.93
2019-04-11T05:35:56.507Z,26.35
2019-04-11T05:38:25.368Z,26.17
2019-04-11T05:40:54.578Z,29.52
2019-04-11T05:43:28.076Z,28.83
2019-04-11T05:45:55.239Z,30.12
2019-04-11T05:48:31.148Z,29.95
2019-04-11T05:51:00.510Z,27.73
2019-04-11T05:53:32.719Z,27.20
2019-04-11T05:56:01.592Z,31.97
2019-04-11T05:58:32.479Z,32.25
2019-04-11T06:01:14.706Z,31.45
2019-04-11T06:03:45.367Z,28.27
2019-04-11T06:06:16.350Z,31.48
2019-04-11T06:08:46.117Z,30.72
2019-04-11T06:11:28.775Z,28.70
2019-04-11T06:14:03.836Z,28.15
2019-04-11T06:16:39.572Z,29.75
2019-04-11T06:19:04.035Z,29.72
2019-04-11T06:21:44.269Z,30.50
2019-04-11T06:24:32.127Z,30.72
2019-04-11T06:27:09.253Z,30.50
2019-04-11T06:29:40.993Z,28.75
2019-04-11T06:32:29.933Z,33.10
2019-04-11T06:35:03.956Z,29.50
2019-04-11T06:37:41.336Z,36.38
2019-04-11T06:40:11.800Z,30.17
2019-04-11T06:42:56.923Z,30.12
2019-04-11T06:48:09.406Z,28.20
2019-04-11T06:50:43.772Z,27.42
2019-04-11T06:53:13.173Z,28.52
2019-04-11T06:56:00.590Z,28.55
2019-04-11T06:58:31.822Z,29.80
2019-04-11T07:01:02.038Z,29.57
2019-04-11T07:03:36.262Z,28.05
2019-04-11T07:06:07.003Z,29.55
2019-04-11T07:08:54.630Z,29.02
2019-04-11T07:11:25.545Z,30.40
2019-04-11T07:14:01.981Z,28.47
2019-04-11T07:16:31.817Z,36.00
2019-04-11T07:19:17.684Z,29.30
2019-04-11T07:21:46.217Z,29.65
2019-04-11T07:24:32.319Z,27.27
2019-04-11T07:27:03.115Z,28.12
2019-04-11T07:29:36.469Z,24.85
2019-04-11T07:32:09.562Z,26.48
2019-04-11T07:34:56.576Z,26.62
2019-04-11T07:37:32.621Z,26.77
2019-04-11T07:40:13.108Z,26.10
2019-04-11T07:42:43.681Z,27.62
2019-04-11T07:45:26.407Z,25.57
2019-04-11T07:48:02.795Z,25.95
2019-04-11T07:50:31.349Z,28.87
2019-04-11T07:53:08.562Z,30.95
2019-04-11T07:55:38.860Z,28.87
2019-04-11T07:58:13.040Z,28.87
2019-04-11T08:00:59.581Z,27.93
2019-04-11T08:03:46.963Z,29.80
2019-04-11T08:06:33.300Z,29.10
2019-04-11T08:09:13.172Z,29.15
2019-04-11T08:11:44.254Z,26.35
2019-04-11T08:14:24.506Z,28.10
2019-04-11T08:16:57.802Z,28.98
2019-04-11T08:19:31.105Z,27.35
2019-04-11T08:22:02.941Z,26.70
2019-04-11T08:24:50.988Z,30.82
2019-04-11T08:27:31.659Z,28.02
2019-04-11T08:30:05.013Z,28.38
2019-04-11T08:32:38.277Z,26.35
2019-04-11T08:35:26.284Z,33.13
2019-04-11T08:37:56.510Z,25.25
2019-04-11T08:40:33.646Z,25.92
2019-04-11T08:43:04.679Z,26.93
2019-04-11T08:45:34.926Z,25.55
2019-04-11T08:48:08.826Z,28.80
2019-04-11T08:50:51.182Z,26.53
2019-04-11T08:53:21.616Z,28.85
2019-04-11T08:56:02.259Z,26.57
2019-04-11T08:58:49.038Z,26.15
2019-04-11T09:01:25.006Z,30.00
2019-04-11T09:04:08.765Z,27.95
2019-04-11T09:06:36.831Z,26.85
2019-04-11T09:09:23.619Z,28.83
2019-04-11T09:11:56.095Z,28.73
2019-04-11T09:14:36.032Z,27.45
2019-04-11T09:17:15.007Z,27.55
2019-04-11T09:19:47.869Z,29.18
2019-04-11T09:22:33.277Z,29.82
2019-04-11T09:25:09.352Z,25.92
2019-04-11T09:27:47.108Z,27.82
2019-04-11T09:30:33.705Z,32.10
2019-04-11T09:33:04.725Z,28.83
2019-04-11T09:35:44.008Z,29.70
2019-04-11T09:38:20.256Z,29.65
2019-04-11T09:41:08.020Z,27.27
2019-04-11T09:43:38.635Z,27.95
2019-04-11T09:46:12.379Z,28.20
2019-04-11T09:48:51.494Z,29.07
2019-04-11T09:51:40.296Z,28.23
2019-04-11T09:54:11.964Z,30.97
2019-04-11T09:57:00.131Z,28.50
2019-04-11T09:59:33.453Z,30.80
2019-04-11T10:02:16.776Z,31.07
2019-04-11T10:04:48.071Z,28.70
2019-04-11T10:07:28.095Z,28.05
2019-04-11T10:10:04.685Z,28.92
2019-04-11T10:12:42.424Z,30.12
2019-04-11T10:15:13.553Z,30.35
2019-04-11T10:17:50.503Z,32.60
2019-04-11T10:20:21.692Z,30.65
2019-04-11T10:23:08.237Z,32.98
2019-04-11T10:25:39.341Z,33.05
2019-04-11T10:28:29.334Z,29.75
2019-04-11T10:31:02.542Z,30.88
2019-04-11T10:33:49.112Z,30.30
2019-04-11T10:36:29.351Z,29.55
2019-04-11T10:39:00.545Z,34.18
2019-04-11T10:41:31.025Z,35.17
2019-04-11T10:43:59.502Z,29.02
2019-04-11T10:46:41.757Z,34.67
2019-04-11T10:49:17.882Z,30.85
2019-04-11T10:51:53.949Z,30.68
2019-04-11T10:54:23.869Z,31.97
2019-04-11T10:56:54.308Z,31.07
2019-04-11T10:59:26.564Z,32.13
2019-04-11T11:02:06.521Z,31.85
2019-04-11T11:04:37.068Z,31.70
2019-04-11T11:07:08.536Z,29.63
2019-04-11T11:10:03.729Z,33.02
2019-04-11T11:12:37.128Z,33.60
2019-04-11T11:15:09.445Z,38.48
2019-04-11T11:18:20.667Z,30.37
2019-04-11T11:20:43.001Z,35.58
2019-04-11T11:23:26.785Z,33.33
2019-04-11T11:26:07.011Z,33.67
2019-04-11T11:28:37.305Z,34.40
2019-04-11T11:31:07.852Z,35.35
2019-04-11T11:33:37.073Z,31.05
2019-04-11T11:36:13.147Z,37.88
2019-04-11T11:38:43.999Z,33.63
2019-04-11T11:41:20.685Z,35.17
2019-04-11T11:43:51.673Z,35.85
2019-04-11T11:46:38.350Z,32.20
2019-04-11T11:49:08.004Z,35.05
2019-04-11T11:51:38.405Z,33.55
2019-04-11T11:54:11.697Z,38.63
2019-04-11T11:56:42.477Z,40.43
2019-04-11T11:59:32.205Z,36.30
2019-04-11T12:02:02.478Z,38.17
2019-04-11T12:04:44.843Z,39.73
2019-04-11T12:07:18.932Z,42.53
2019-04-11T12:10:06.818Z,38.83
2019-04-11T12:12:38.024Z,37.88
2019-04-11T12:15:17.224Z,38.33
2019-04-11T12:18:06.718Z,36.38
2019-04-11T12:20:44.491Z,36.77
2019-04-11T12:23:13.023Z,38.00
2019-04-11T12:25:43.167Z,38.00
2019-04-11T12:28:17.411Z,41.63
2019-04-11T12:30:48.151Z,38.42
2019-04-11T12:33:30.956Z,41.23
2019-04-11T12:36:03.754Z,41.85
2019-04-11T12:38:34.106Z,42.62
2019-04-11T12:41:06.629Z,40.65
2019-04-11T12:43:36.993Z,36.40
2019-04-11T12:46:29.713Z,41.08
2019-04-11T12:48:55.454Z,38.02
2019-04-11T12:51:34.267Z,40.52
2019-04-11T12:54:03.147Z,43.52
2019-04-11T12:56:42.490Z,38.42
2019-04-11T12:59:10.984Z,40.75
2019-04-11T13:01:46.846Z,44.18
2019-04-11T13:04:16.963Z,45.15
2019-04-11T13:07:03.638Z,40.58
2019-04-11T13:09:39.475Z,39.65
2019-04-11T13:12:12.324Z,40.83
2019-04-11T13:14:42.714Z,42.48
2019-04-11T13:17:22.230Z,44.08
2019-04-11T13:20:08.532Z,45.03
2019-04-11T13:22:39.503Z,41.75
2019-04-11T13:25:12.514Z,40.00
2019-04-11T13:27:48.057Z,43.30
2019-04-11T13:30:30.194Z,47.13
2019-04-11T13:32:58.747Z,44.30
2019-04-11T13:35:44.994Z,43.58
2019-04-11T13:38:15.369Z,39.75
2019-04-11T13:40:45.732Z,40.33
2019-04-11T13:43:28.769Z,46.08
2019-04-11T13:46:04.450Z,42.08
2019-04-11T13:48:50.588Z,42.67
2019-04-11T13:51:23.919Z,46.42
2019-04-11T13:54:11.045Z,43.48
2019-04-11T13:56:57.760Z,40.63
2019-04-11T13:59:36.936Z,42.10
2019-04-11T14:02:15.625Z,42.53
2019-04-11T14:04:49.069Z,44.53
2019-04-11T14:07:21.238Z,42.23
2019-04-11T14:09:51.292Z,41.92
2019-04-11T14:12:19.770Z,43.78
2019-04-11T14:14:51.782Z,43.58
2019-04-11T14:17:41.547Z,40.73
2019-04-11T14:20:13.857Z,37.83
2019-04-11T14:22:44.136Z,44.50
2019-04-11T14:25:23.577Z,42.20
2019-04-11T14:27:53.937Z,41.70
2019-04-11T14:30:39.278Z,43.40
2019-04-11T14:33:07.915Z,39.67
2019-04-11T14:35:37.993Z,45.28
2019-04-11T14:38:10.841Z,40.80
2019-04-11T14:41:01.484Z,42.53
2019-04-11T14:43:28.370Z,43.10
2019-04-11T14:46:00.412Z,43.30
2019-04-11T14:48:37.844Z,42.93
2019-04-11T14:51:11.141Z,45.83
2019-04-11T14:53:56.609Z,48.15
2019-04-11T14:56:29.776Z,44.65
2019-04-11T14:59:18.113Z,48.52
2019-04-11T15:01:48.470Z,46.58
2019-04-11T15:04:34.999Z,44.85
2019-04-11T15:07:05.199Z,46.85
2019-04-11T15:09:51.163Z,46.48
2019-04-11T15:12:27.272Z,41.68
2019-04-11T15:15:13.896Z,46.68
2019-04-11T15:17:43.846Z,42.75
2019-04-11T15:20:18.084Z,43.87
2019-04-11T15:22:48.210Z,47.88
2019-04-11T15:25:18.565Z,50.30
2019-04-11T15:28:04.809Z,45.60
2019-04-11T15:30:50.119Z,48.30
2019-04-11T15:33:23.168Z,48.70
2019-04-11T15:35:58.046Z,51.42
2019-04-11T15:38:44.508Z,46.40
2019-04-11T15:41:13.877Z,51.40
2019-04-11T15:43:49.858Z,53.83
2019-04-11T15:46:25.958Z,46.65
2019-04-11T15:49:20.442Z,43.33
2019-04-11T15:51:44.223Z,49.67
2019-04-11T15:54:14.656Z,48.50
2019-04-11T15:56:45.558Z,47.75
2019-04-11T15:59:15.642Z,47.03
2019-04-11T16:01:51.958Z,47.45
2019-04-11T16:04:31.313Z,46.85
2019-04-11T16:07:14.681Z,46.15
2019-04-11T16:09:44.873Z,49.30
2019-04-11T16:12:17.984Z,50.05
2019-04-11T16:15:05.996Z,48.13
2019-04-11T16:17:36.119Z,46.30
2019-04-11T16:20:07.917Z,52.55
2019-04-11T16:22:55.926Z,49.00
2019-04-11T16:25:28.927Z,51.58
2019-04-11T16:28:06.570Z,47.50
2019-04-11T16:30:34.450Z,44.90
2019-04-11T16:33:07.557Z,48.95
2019-04-11T16:35:56.914Z,43.52
2019-04-11T16:38:26.614Z,48.08
2019-04-11T16:41:13.126Z,50.05
2019-04-11T16:43:43.240Z,48.50
2019-04-11T16:46:25.387Z,45.78
2019-04-11T16:48:55.906Z,43.50
2019-04-11T16:51:30.664Z,46.13
2019-04-11T16:53:54.861Z,45.05
2019-04-11T16:56:23.321Z,44.75
2019-04-11T16:58:52.040Z,43.00
2019-04-11T17:01:20.694Z,44.80
2019-04-11T17:03:54.865Z,46.55
2019-04-11T17:06:23.780Z,50.83
2019-04-11T17:08:56.315Z,50.20
2019-04-11T17:11:26.871Z,50.20
2019-04-11T17:13:57.448Z,53.35
2019-04-11T17:16:25.389Z,50.95
2019-04-11T17:18:53.839Z,51.42
2019-04-11T17:21:23.336Z,50.25
2019-04-11T17:23:51.930Z,53.60
2019-04-11T17:26:22.911Z,47.48
2019-04-11T17:28:53.545Z,49.83
2019-04-11T17:31:21.032Z,52.70
2019-04-11T17:33:49.618Z,49.55
2019-04-11T17:36:18.510Z,52.17
2019-04-11T17:38:46.980Z,51.40
2019-04-11T17:41:16.125Z,49.83
2019-04-11T17:43:46.778Z,48.28
2019-04-11T17:46:14.786Z,54.80
2019-04-11T17:48:43.266Z,51.42
2019-04-11T17:51:11.738Z,50.70
2019-04-11T17:53:40.205Z,50.17
2019-04-11T17:56:08.648Z,47.10
2019-04-11T17:58:37.108Z,50.00
2019-04-11T18:01:07.344Z,52.00
2019-04-11T18:03:35.907Z,51.15
2019-04-11T18:06:04.746Z,53.38
2019-04-11T18:08:33.188Z,49.10
2019-04-11T18:11:01.946Z,48.52
2019-04-11T18:13:31.548Z,48.38
2019-04-11T18:16:01.245Z,47.13
2019-04-11T18:18:34.888Z,48.78
2019-04-11T18:21:01.307Z,48.15
2019-04-11T18:23:29.768Z,49.38
2019-04-11T18:25:58.237Z,43.33
2019-04-11T18:28:26.958Z,42.75
2019-04-11T18:30:55.429Z,41.88
2019-04-11T18:33:23.955Z,45.03
2019-04-11T18:35:52.425Z,43.85
2019-04-11T18:38:20.874Z,39.78
2019-04-11T18:40:49.617Z,42.85
2019-04-11T18:43:18.108Z,42.08
2019-04-11T18:45:46.593Z,41.18
2019-04-11T18:48:15.037Z,44.45
2019-04-11T18:50:43.822Z,43.02
2019-04-11T18:53:12.293Z,47.27
2019-04-11T18:55:40.801Z,43.38
2019-04-11T18:58:09.648Z,42.85
2019-04-11T19:00:38.934Z,43.50
2019-04-11T19:03:08.017Z,43.48
2019-04-11T19:05:38.278Z,41.58
2019-04-11T19:08:07.011Z,44.27
2019-04-11T19:10:35.464Z,42.58
2019-04-11T19:13:04.444Z,45.75
2019-04-11T19:15:32.899Z,41.02
2019-04-11T19:18:06.738Z,46.42
2019-04-11T19:20:32.061Z,43.28
2019-04-11T19:23:00.599Z,43.52
2019-04-11T19:25:31.496Z,41.20
2019-04-11T19:27:59.466Z,45.25
2019-04-11T19:30:28.188Z,41.65
2019-04-11T19:32:56.644Z,39.35
2019-04-11T19:35:25.215Z,41.88
2019-04-11T19:37:53.729Z,40.43
2019-04-11T19:40:22.211Z,47.25
2019-04-11T19:42:50.659Z,42.75
2019-04-11T19:45:20.213Z,42.85
2019-04-11T19:47:51.724Z,46.77
2019-04-11T19:50:19.154Z,43.87
2019-04-11T19:52:47.605Z,43.73
2019-04-11T19:55:34.673Z,47.98
2019-04-11T19:58:03.488Z,49.48
2019-04-11T20:00:32.288Z,51.42
2019-04-11T20:03:00.743Z,47.88
2019-04-11T20:05:29.288Z,45.50
2019-04-11T20:07:57.729Z,47.55
2019-04-11T20:10:26.203Z,45.23
2019-04-11T20:12:54.667Z,44.20
2019-04-11T20:15:23.163Z,44.18
2019-04-11T20:17:52.211Z,42.95
2019-04-11T20:20:20.751Z,42.05
2019-04-11T20:22:58.809Z,43.55
2019-04-11T20:25:19.709Z,44.23
2019-04-11T20:27:50.765Z,44.67
2019-04-11T20:30:18.327Z,47.73
2019-04-11T20:32:46.797Z,45.35
2019-04-11T20:35:15.237Z,47.73
2019-04-11T20:37:44.726Z,44.45
2019-04-11T20:40:17.220Z,47.95
2019-04-11T20:42:44.307Z,44.35
2019-04-11T20:45:12.811Z,41.35
2019-04-11T20:47:41.273Z,43.55
2019-04-11T20:50:09.799Z,41.98
2019-04-11T20:52:38.274Z,45.08
2019-04-11T20:55:09.181Z,45.50
2019-04-11T20:57:37.418Z,39.85
2019-04-11T21:00:12.057Z,42.40
2019-04-11T21:02:38.512Z,43.35
2019-04-11T21:05:07.041Z,42.25
2019-04-11T21:07:35.769Z,45.78
2019-04-11T21:10:06.480Z,43.35
2019-04-11T21:12:37.082Z,40.90
2019-04-11T21:15:07.259Z,40.25
2019-04-11T21:17:35.788Z,44.27
2019-04-11T21:20:06.645Z,42.08
2019-04-11T21:22:35.125Z,43.28
2019-04-11T21:25:04.130Z,44.60
2019-04-11T21:27:32.887Z,42.35
2019-04-11T21:30:01.410Z,41.40
2019-04-11T21:32:31.925Z,40.50
2019-04-11T21:35:02.378Z,42.53
2019-04-11T21:37:30.950Z,43.28
2019-04-11T21:39:59.429Z,41.10
2019-04-11T21:42:28.158Z,44.95
2019-04-11T21:44:56.622Z,40.55
2019-04-11T21:47:25.069Z,40.95
2019-04-11T21:49:53.534Z,43.95
2019-04-11T21:52:21.983Z,42.53
2019-04-11T21:54:50.475Z,43.73
2019-04-11T21:57:19.274Z,43.87
2019-04-11T21:59:51.236Z,42.08
2019-04-11T22:02:18.436Z,43.68
2019-04-11T22:04:46.951Z,42.23
2019-04-11T22:07:15.659Z,42.62
2019-04-11T22:09:44.407Z,42.45
2019-04-11T22:12:12.860Z,41.50
2019-04-11T22:14:42.541Z,41.90
2019-04-11T22:17:14.896Z,42.93
2019-04-11T22:19:45.481Z,43.80
2019-04-11T22:22:11.510Z,43.00
2019-04-11T22:24:40.232Z,43.42
2019-04-11T22:27:08.949Z,42.70
2019-04-11T22:29:37.403Z,40.80
2019-04-11T22:32:06.126Z,42.95
2019-04-11T22:34:45.601Z,46.13
2019-04-11T22:37:14.162Z,44.18
2019-04-11T22:39:42.617Z,42.17
2019-04-11T22:42:11.219Z,43.23
2019-04-11T22:44:39.667Z,42.45
2019-04-11T22:47:08.693Z,41.42
2019-04-11T22:49:39.299Z,41.55
2019-04-11T22:52:07.927Z,41.98
2019-04-11T22:54:36.379Z,41.00
2019-04-11T22:57:04.904Z,44.95
2019-04-11T22:59:34.638Z,39.48
2019-04-11T23:02:07.920Z,39.90
2019-04-11T23:04:36.646Z,39.85
2019-04-11T23:07:05.137Z,39.53
2019-04-11T23:09:33.633Z,42.53
2019-04-11T23:12:02.333Z,38.40
2019-04-11T23:14:31.874Z,40.20
2019-04-11T23:17:00.579Z,42.17
2019-04-11T23:19:29.039Z,39.90
2019-04-11T23:21:57.496Z,39.70
2019-04-11T23:24:26.222Z,39.55
2019-04-11T23:26:54.946Z,36.93
2019-04-11T23:29:23.421Z,38.70
2019-04-11T23:31:51.873Z,39.83
2019-04-11T23:34:22.096Z,40.10
2019-04-11T23:36:51.217Z,41.23
2019-04-11T23:39:22.706Z,41.25
2019-04-11T23:41:50.476Z,42.62
2019-04-11T23:44:20.371Z,38.75
2019-04-11T23:46:51.741Z,39.08
2019-04-11T23:49:19.604Z,37.70
2019-04-11T23:51:51.133Z,38.08
2019-04-11T23:54:23.221Z,37.95
2019-04-11T23:56:50.301Z,37.23
2019-04-11T23:59:19.013Z,39.23
